createdAt,value
2018-09-09T00:00:36.811Z,13.75
2018-09-09T00:01:37.036Z,13.65
2018-09-09T00:02:37.266Z,13.67
2018-09-09T00:03:37.493Z,13.68
2018-09-09T00:04:37.733Z,13.59
2018-09-09T00:05:37.948Z,13.57
2018-09-09T00:06:38.176Z,13.57
2018-09-09T00:07:38.407Z,13.57
2018-09-09T00:08:38.732Z,13.54
2018-09-09T00:09:38.911Z,13.57
2018-09-09T00:10:39.134Z,13.59
2018-09-09T00:11:39.362Z,13.49
2018-09-09T00:12:39.590Z,13.54
2018-09-09T00:13:39.818Z,13.56
2018-09-09T00:14:40.054Z,13.59
2018-09-09T00:15:40.266Z,13.50
2018-09-09T00:16:40.494Z,13.54
2018-09-09T00:17:40.720Z,13.54
2018-09-09T00:18:40.947Z,13.57
2018-09-09T00:19:41.175Z,13.59
2018-09-09T00:20:41.410Z,13.59
2018-09-09T00:21:41.636Z,13.53
2018-09-09T00:22:41.862Z,13.53
2018-09-09T00:23:42.090Z,13.37
2018-09-09T00:24:42.318Z,13.28
2018-09-09T00:25:42.545Z,13.25
2018-09-09T00:26:42.773Z,13.25
2018-09-09T00:27:43.057Z,13.35
2018-09-09T00:28:43.266Z,13.18
2018-09-09T00:29:43.500Z,13.35
2018-09-09T00:30:43.773Z,13.39
2018-09-09T00:31:43.940Z,13.37
2018-09-09T00:32:44.166Z,13.46
2018-09-09T00:33:44.393Z,13.11
2018-09-09T00:34:44.700Z,13.11
2018-09-09T00:35:44.838Z,13.01
2018-09-09T00:36:45.076Z,12.94
2018-09-09T00:37:45.288Z,13.01
2018-09-09T00:38:45.510Z,13.01
2018-09-09T00:39:45.738Z,13.00
2018-09-09T00:40:45.961Z,13.03
2018-09-09T00:41:46.193Z,13.05
2018-09-09T00:42:46.418Z,13.19
2018-09-09T00:43:46.652Z,13.03
2018-09-09T00:44:46.861Z,13.18
2018-09-09T00:45:47.092Z,13.27
2018-09-09T00:46:47.319Z,13.23
2018-09-09T00:47:47.546Z,13.27
2018-09-09T00:48:47.776Z,13.33
2018-09-09T00:49:48.008Z,13.33
2018-09-09T00:50:48.234Z,13.41
2018-09-09T00:51:48.474Z,13.35
2018-09-09T00:52:48.693Z,13.33
2018-09-09T00:53:48.919Z,13.27
2018-09-09T00:54:49.145Z,13.23
2018-09-09T00:55:49.383Z,13.12
2018-09-09T00:56:49.603Z,13.13
2018-09-09T00:57:49.862Z,13.20
2018-09-09T00:58:50.058Z,13.27
2018-09-09T00:59:50.285Z,13.20
2018-09-09T01:00:50.510Z,13.13
2018-09-09T01:01:50.738Z,13.12
2018-09-09T01:02:50.966Z,13.22
2018-09-09T01:03:51.193Z,13.27
2018-09-09T01:04:51.419Z,13.31
2018-09-09T01:05:51.647Z,13.37
2018-09-09T01:06:51.875Z,13.42
2018-09-09T01:07:52.101Z,13.37
2018-09-09T01:08:52.328Z,13.46
2018-09-09T01:09:52.552Z,13.44
2018-09-09T01:10:52.782Z,13.38
2018-09-09T01:11:53.013Z,13.41
2018-09-09T01:12:53.237Z,13.44
2018-09-09T01:13:53.463Z,13.33
2018-09-09T01:14:53.689Z,13.31
2018-09-09T01:15:53.924Z,13.42
2018-09-09T01:16:54.149Z,13.42
2018-09-09T01:17:54.380Z,13.41
2018-09-09T01:18:54.604Z,13.47
2018-09-09T01:19:54.831Z,13.53
2018-09-09T01:20:55.061Z,13.44
2018-09-09T01:21:55.283Z,13.53
2018-09-09T01:22:55.506Z,13.54
2018-09-09T01:23:55.743Z,13.46
2018-09-09T01:24:56.011Z,13.47
2018-09-09T01:25:56.190Z,13.22
2018-09-09T01:26:56.421Z,13.18
2018-09-09T01:27:56.644Z,13.20
2018-09-09T01:28:56.870Z,13.22
2018-09-09T01:29:57.096Z,13.03
2018-09-09T01:30:57.324Z,13.13
2018-09-09T01:31:57.548Z,13.09
2018-09-09T01:32:57.905Z,13.13
2018-09-09T01:33:58.061Z,13.22
2018-09-09T01:34:58.286Z,13.35
2018-09-09T01:35:58.510Z,13.44
2018-09-09T01:36:58.737Z,13.41
2018-09-09T01:37:58.971Z,13.37
2018-09-09T01:38:59.194Z,13.47
2018-09-09T01:39:59.414Z,13.53
2018-09-09T01:40:59.649Z,13.52
2018-09-09T01:41:59.879Z,13.44
2018-09-09T01:43:00.106Z,13.52
2018-09-09T01:44:00.331Z,13.49
2018-09-09T01:45:00.554Z,13.46
2018-09-09T01:46:00.782Z,13.44
2018-09-09T01:47:01.019Z,13.50
2018-09-09T01:48:01.223Z,13.42
2018-09-09T01:49:01.450Z,13.50
2018-09-09T01:50:01.675Z,13.46
2018-09-09T01:51:01.905Z,13.46
2018-09-09T01:52:02.129Z,13.39
2018-09-09T01:53:02.363Z,13.37
2018-09-09T01:54:02.587Z,13.25
2018-09-09T01:55:02.812Z,13.15
2018-09-09T01:56:03.041Z,13.20
2018-09-09T01:57:03.267Z,13.35
2018-09-09T01:58:03.495Z,13.33
2018-09-09T01:59:03.722Z,13.27
2018-09-09T02:00:03.953Z,13.09
2018-09-09T02:01:04.178Z,12.90
2018-09-09T02:02:04.404Z,12.97
2018-09-09T02:03:04.634Z,12.98
2018-09-09T02:04:04.860Z,13.13
2018-09-09T02:05:05.090Z,13.22
2018-09-09T02:06:05.316Z,13.20
2018-09-09T02:07:05.542Z,13.28
2018-09-09T02:08:05.769Z,13.25
2018-09-09T02:09:05.996Z,13.28
2018-09-09T02:10:06.224Z,13.27
2018-09-09T02:11:06.450Z,13.20
2018-09-09T02:12:06.679Z,13.05
2018-09-09T02:13:06.906Z,13.19
2018-09-09T02:14:07.138Z,13.05
2018-09-09T02:15:07.366Z,13.05
2018-09-09T02:16:07.593Z,13.03
2018-09-09T02:17:07.820Z,13.05
2018-09-09T02:18:08.047Z,12.94
2018-09-09T02:19:08.274Z,12.97
2018-09-09T02:20:08.499Z,12.98
2018-09-09T02:21:08.728Z,12.83
2018-09-09T02:22:08.956Z,12.94
2018-09-09T02:23:09.183Z,12.91
2018-09-09T02:24:09.418Z,12.93
2018-09-09T02:25:09.638Z,12.94
2018-09-09T02:26:09.865Z,12.87
2018-09-09T02:27:10.093Z,12.94
2018-09-09T02:28:10.322Z,13.00
2018-09-09T02:29:10.550Z,13.03
2018-09-09T02:30:10.777Z,13.05
2018-09-09T02:31:11.006Z,13.01
2018-09-09T02:32:11.234Z,13.01
2018-09-09T02:33:11.458Z,13.12
2018-09-09T02:34:11.687Z,13.05
2018-09-09T02:35:11.917Z,12.98
2018-09-09T02:36:12.144Z,13.08
2018-09-09T02:37:12.372Z,12.87
2018-09-09T02:38:12.595Z,12.85
2018-09-09T02:39:12.824Z,12.76
2018-09-09T02:40:13.052Z,12.83
2018-09-09T02:41:13.286Z,12.73
2018-09-09T02:42:13.515Z,12.73
2018-09-09T02:43:13.733Z,12.83
2018-09-09T02:44:13.958Z,12.83
2018-09-09T02:45:14.185Z,12.79
2018-09-09T02:46:14.412Z,12.76
2018-09-09T02:47:14.640Z,12.75
2018-09-09T02:48:14.864Z,12.79
2018-09-09T02:49:15.093Z,12.79
2018-09-09T02:50:15.320Z,12.67
2018-09-09T02:51:15.544Z,12.72
2018-09-09T02:52:15.769Z,12.65
2018-09-09T02:53:15.996Z,12.62
2018-09-09T02:54:16.224Z,12.62
2018-09-09T02:55:16.452Z,12.53
2018-09-09T02:56:16.680Z,12.42
2018-09-09T02:57:16.904Z,12.43
2018-09-09T02:58:17.136Z,12.50
2018-09-09T02:59:17.367Z,12.43
2018-09-09T03:00:17.588Z,12.45
2018-09-09T03:01:17.816Z,12.40
2018-09-09T03:02:18.039Z,12.39
2018-09-09T03:03:18.264Z,12.31
2018-09-09T03:04:18.494Z,12.29
2018-09-09T03:05:18.721Z,12.10
2018-09-09T03:06:18.952Z,12.12
2018-09-09T03:07:19.173Z,12.12
2018-09-09T03:08:19.403Z,12.20
2018-09-09T03:09:19.630Z,12.28
2018-09-09T03:10:19.858Z,12.22
2018-09-09T03:11:20.087Z,12.12
2018-09-09T03:12:20.312Z,12.10
2018-09-09T03:13:20.534Z,12.03
2018-09-09T03:14:20.758Z,12.02
2018-09-09T03:15:20.987Z,11.88
2018-09-09T03:16:21.211Z,12.00
2018-09-09T03:17:21.437Z,12.02
2018-09-09T03:18:21.670Z,12.07
2018-09-09T03:19:21.876Z,12.06
2018-09-09T03:20:22.109Z,12.09
2018-09-09T03:21:22.331Z,12.07
2018-09-09T03:22:22.558Z,12.13
2018-09-09T03:23:22.785Z,12.07
2018-09-09T03:24:23.010Z,12.04
2018-09-09T03:25:23.239Z,12.15
2018-09-09T03:26:23.464Z,12.22
2018-09-09T03:27:23.691Z,12.25
2018-09-09T03:28:23.946Z,12.18
2018-09-09T03:29:24.144Z,12.25
2018-09-09T03:30:24.373Z,12.24
2018-09-09T03:31:24.601Z,12.43
2018-09-09T03:32:24.828Z,12.39
2018-09-09T03:33:25.052Z,12.42
2018-09-09T03:34:25.279Z,12.47
2018-09-09T03:35:25.506Z,12.46
2018-09-09T03:36:25.731Z,12.53
2018-09-09T03:37:25.960Z,12.55
2018-09-09T03:38:26.186Z,12.55
2018-09-09T03:39:26.411Z,12.57
2018-09-09T03:40:26.647Z,12.55
2018-09-09T03:41:26.869Z,12.58
2018-09-09T03:42:27.095Z,12.65
2018-09-09T03:43:27.323Z,12.43
2018-09-09T03:44:27.555Z,12.29
2018-09-09T03:45:27.781Z,12.40
2018-09-09T03:46:28.005Z,12.21
2018-09-09T03:47:28.232Z,12.29
2018-09-09T03:48:28.479Z,12.37
2018-09-09T03:49:28.698Z,12.25
2018-09-09T03:50:28.925Z,12.22
2018-09-09T03:51:29.159Z,12.31
2018-09-09T03:52:29.383Z,12.31
2018-09-09T03:53:29.632Z,12.42
2018-09-09T03:54:29.879Z,12.43
2018-09-09T03:55:30.106Z,12.50
2018-09-09T03:56:30.330Z,12.45
2018-09-09T03:57:30.567Z,12.39
2018-09-09T03:58:30.793Z,12.50
2018-09-09T03:59:31.021Z,12.24
2018-09-09T04:00:31.251Z,12.40
2018-09-09T04:01:31.471Z,12.37
2018-09-09T04:02:31.699Z,12.40
2018-09-09T04:03:31.925Z,12.49
2018-09-09T04:04:32.156Z,12.49
2018-09-09T04:05:32.380Z,12.53
2018-09-09T04:06:32.608Z,12.55
2018-09-09T04:07:32.832Z,12.62
2018-09-09T04:08:33.074Z,12.65
2018-09-09T04:09:33.302Z,12.57
2018-09-09T04:10:33.529Z,12.60
2018-09-09T04:11:33.751Z,12.57
2018-09-09T04:12:33.979Z,12.50
2018-09-09T04:13:34.205Z,12.61
2018-09-09T04:14:34.432Z,12.53
2018-09-09T04:15:34.672Z,12.68
2018-09-09T04:16:34.890Z,12.57
2018-09-09T04:17:35.120Z,12.61
2018-09-09T04:18:35.346Z,12.61
2018-09-09T04:19:35.573Z,12.65
2018-09-09T04:20:35.799Z,12.55
2018-09-09T04:21:36.027Z,12.49
2018-09-09T04:22:36.258Z,12.50
2018-09-09T04:23:36.485Z,12.67
2018-09-09T04:24:36.713Z,12.55
2018-09-09T04:25:36.939Z,12.65
2018-09-09T04:26:37.166Z,12.47
2018-09-09T04:27:37.393Z,12.45
2018-09-09T04:28:37.621Z,12.39
2018-09-09T04:29:37.847Z,12.43
2018-09-09T04:30:38.072Z,12.49
2018-09-09T04:31:38.299Z,12.43
2018-09-09T04:32:38.525Z,12.54
2018-09-09T04:33:38.752Z,12.49
2018-09-09T04:34:38.978Z,12.53
2018-09-09T04:35:39.206Z,12.64
2018-09-09T04:36:39.432Z,12.68
2018-09-09T04:37:39.659Z,12.53
2018-09-09T04:38:39.886Z,12.58
2018-09-09T04:39:40.115Z,12.70
2018-09-09T04:40:40.340Z,12.57
2018-09-09T04:41:40.567Z,12.61
2018-09-09T04:42:40.798Z,12.55
2018-09-09T04:43:41.030Z,12.67
2018-09-09T04:44:41.265Z,12.70
2018-09-09T04:45:41.491Z,12.60
2018-09-09T04:46:41.758Z,12.68
2018-09-09T04:47:41.984Z,12.64
2018-09-09T04:48:42.212Z,12.67
2018-09-09T04:49:42.436Z,12.64
2018-09-09T04:50:42.664Z,12.64
2018-09-09T04:51:42.890Z,12.65
2018-09-09T04:52:43.116Z,12.40
2018-09-09T04:53:43.344Z,12.25
2018-09-09T04:54:43.574Z,12.22
2018-09-09T04:55:43.798Z,12.25
2018-09-09T04:56:44.025Z,12.25
2018-09-09T04:57:44.252Z,12.25
2018-09-09T04:58:44.485Z,12.24
2018-09-09T04:59:44.715Z,12.35
2018-09-09T05:00:44.942Z,12.27
2018-09-09T05:01:45.169Z,12.40
2018-09-09T05:02:45.398Z,12.37
2018-09-09T05:03:45.630Z,12.25
2018-09-09T05:04:45.850Z,12.35
2018-09-09T05:05:46.075Z,12.27
2018-09-09T05:06:46.305Z,12.28
2018-09-09T05:07:46.523Z,12.35
2018-09-09T05:08:46.756Z,12.24
2018-09-09T05:09:46.980Z,12.25
2018-09-09T05:10:47.208Z,12.31
2018-09-09T05:11:47.433Z,12.42
2018-09-09T05:12:47.660Z,12.43
2018-09-09T05:13:47.889Z,12.46
2018-09-09T05:14:48.115Z,12.55
2018-09-09T05:15:48.342Z,12.61
2018-09-09T05:16:48.575Z,12.62
2018-09-09T05:17:48.799Z,12.62
2018-09-09T05:18:49.030Z,12.68
2018-09-09T05:19:49.257Z,12.76
2018-09-09T05:20:49.483Z,12.68
2018-09-09T05:21:49.712Z,12.75
2018-09-09T05:22:49.937Z,12.75
2018-09-09T05:23:50.171Z,12.82
2018-09-09T05:24:50.396Z,12.95
2018-09-09T05:25:50.622Z,12.94
2018-09-09T05:26:50.849Z,12.93
2018-09-09T05:27:51.074Z,12.91
2018-09-09T05:28:51.304Z,12.93
2018-09-09T05:29:51.531Z,12.94
2018-09-09T05:30:51.757Z,12.87
2018-09-09T05:31:51.988Z,12.72
2018-09-09T05:32:52.214Z,12.72
2018-09-09T05:33:52.441Z,12.62
2018-09-09T05:34:52.668Z,12.67
2018-09-09T05:35:52.893Z,12.73
2018-09-09T05:36:53.122Z,12.72
2018-09-09T05:37:53.345Z,12.86
2018-09-09T05:38:53.574Z,12.75
2018-09-09T05:39:53.800Z,12.87
2018-09-09T05:40:54.028Z,12.87
2018-09-09T05:41:54.254Z,13.00
2018-09-09T05:42:54.481Z,13.05
2018-09-09T05:43:54.708Z,12.94
2018-09-09T05:44:54.941Z,13.11
2018-09-09T05:45:55.163Z,13.20
2018-09-09T05:46:55.390Z,13.28
2018-09-09T05:47:55.619Z,13.38
2018-09-09T05:48:55.842Z,13.25
2018-09-09T05:49:56.071Z,13.41
2018-09-09T05:50:56.297Z,13.42
2018-09-09T05:51:56.531Z,13.46
2018-09-09T05:52:56.753Z,13.41
2018-09-09T05:53:57.077Z,13.42
2018-09-09T05:54:57.209Z,13.38
2018-09-09T05:55:57.435Z,13.57
2018-09-09T05:56:57.662Z,13.57
2018-09-09T05:57:57.892Z,13.65
2018-09-09T05:58:58.117Z,13.78
2018-09-09T05:59:58.344Z,13.87
2018-09-09T06:00:58.560Z,13.92
2018-09-09T06:01:58.803Z,14.17
2018-09-09T06:02:59.032Z,14.25
2018-09-09T06:03:59.266Z,14.22
2018-09-09T06:04:59.488Z,14.26
2018-09-09T06:05:59.714Z,14.32
2018-09-09T06:06:59.945Z,14.26
2018-09-09T06:08:00.173Z,14.33
2018-09-09T06:09:00.400Z,14.43
2018-09-09T06:10:00.626Z,14.33
2018-09-09T06:11:00.855Z,14.44
2018-09-09T06:12:01.086Z,14.41
2018-09-09T06:13:01.312Z,14.40
2018-09-09T06:14:01.541Z,14.43
2018-09-09T06:15:01.769Z,14.45
2018-09-09T06:16:01.996Z,14.54
2018-09-09T06:17:02.226Z,14.58
2018-09-09T06:18:02.454Z,14.68
2018-09-09T06:19:02.681Z,14.66
2018-09-09T06:20:02.910Z,14.47
2018-09-09T06:21:03.137Z,14.50
2018-09-09T06:22:03.366Z,14.58
2018-09-09T06:23:03.594Z,14.54
2018-09-09T06:24:03.823Z,14.68
2018-09-09T06:25:04.048Z,14.73
2018-09-09T06:26:04.275Z,14.69
2018-09-09T06:27:04.503Z,15.07
2018-09-09T06:28:04.729Z,15.17
2018-09-09T06:29:04.958Z,15.28
2018-09-09T06:30:05.187Z,15.33
2018-09-09T06:31:05.418Z,15.51
2018-09-09T06:32:05.647Z,15.59
2018-09-09T06:33:05.874Z,15.77
2018-09-09T06:34:06.104Z,15.76
2018-09-09T06:35:06.328Z,16.10
2018-09-09T06:36:06.559Z,16.28
2018-09-09T06:37:06.785Z,16.28
2018-09-09T06:38:07.022Z,16.24
2018-09-09T06:39:07.279Z,16.12
2018-09-09T06:40:07.499Z,16.21
2018-09-09T06:41:07.709Z,16.60
2018-09-09T06:42:07.956Z,16.72
2018-09-09T06:43:08.188Z,16.89
2018-09-09T06:44:08.421Z,17.02
2018-09-09T06:45:08.648Z,16.97
2018-09-09T06:46:08.876Z,17.14
2018-09-09T06:47:09.105Z,17.38
2018-09-09T06:48:09.335Z,17.39
2018-09-09T06:49:09.562Z,17.34
2018-09-09T06:50:09.790Z,17.39
2018-09-09T06:51:10.021Z,17.31
2018-09-09T06:52:10.251Z,17.64
2018-09-09T06:53:10.477Z,17.79
2018-09-09T06:54:10.709Z,17.82
2018-09-09T06:55:10.937Z,17.82
2018-09-09T06:56:11.166Z,17.87
2018-09-09T06:57:11.396Z,17.98
2018-09-09T06:58:11.629Z,18.04
2018-09-09T06:59:11.854Z,18.13
2018-09-09T07:00:12.086Z,18.08
2018-09-09T07:01:12.314Z,18.16
2018-09-09T07:02:12.603Z,18.05
2018-09-09T07:03:12.776Z,18.16
2018-09-09T07:04:13.006Z,18.22
2018-09-09T07:05:13.235Z,18.13
2018-09-09T07:06:13.465Z,18.38
2018-09-09T07:07:13.694Z,18.59
2018-09-09T07:08:13.924Z,18.56
2018-09-09T07:09:14.153Z,18.55
2018-09-09T07:10:14.386Z,18.50
2018-09-09T07:11:14.723Z,18.53
2018-09-09T07:12:14.849Z,18.47
2018-09-09T07:13:15.077Z,18.50
2018-09-09T07:14:15.307Z,18.55
2018-09-09T07:15:15.537Z,18.60
2018-09-09T07:16:15.768Z,18.55
2018-09-09T07:17:15.997Z,18.66
2018-09-09T07:18:16.227Z,18.60
2018-09-09T07:19:16.531Z,18.65
2018-09-09T07:20:16.694Z,18.68
2018-09-09T07:21:16.933Z,18.66
2018-09-09T07:22:17.166Z,18.58
2018-09-09T07:23:17.395Z,18.63
2018-09-09T07:24:17.624Z,18.81
2018-09-09T07:25:17.855Z,18.92
2018-09-09T07:26:18.089Z,18.77
2018-09-09T07:27:18.322Z,18.81
2018-09-09T07:28:18.530Z,18.62
2018-09-09T07:29:18.762Z,18.63
2018-09-09T07:30:18.993Z,18.47
2018-09-09T07:31:19.223Z,18.43
2018-09-09T07:32:19.454Z,18.50
2018-09-09T07:33:19.711Z,18.63
2018-09-09T07:34:20.020Z,18.56
2018-09-09T07:35:20.143Z,18.56
2018-09-09T07:36:20.373Z,18.55
2018-09-09T07:37:20.615Z,18.52
2018-09-09T07:38:20.837Z,18.44
2018-09-09T07:39:21.065Z,18.63
2018-09-09T07:40:21.308Z,18.45
2018-09-09T07:41:21.540Z,18.58
2018-09-09T07:42:21.770Z,18.71
2018-09-09T07:43:22.002Z,18.65
2018-09-09T07:44:22.232Z,18.77
2018-09-09T07:45:22.464Z,18.90
2018-09-09T07:46:22.736Z,18.84
2018-09-09T07:47:22.929Z,19.07
2018-09-09T07:48:23.157Z,19.02
2018-09-09T07:49:23.388Z,18.96
2018-09-09T07:50:23.610Z,19.19
2018-09-09T07:51:23.853Z,19.12
2018-09-09T07:52:24.085Z,19.22
2018-09-09T07:53:24.314Z,19.19
2018-09-09T07:54:24.548Z,18.99
2018-09-09T07:55:24.774Z,19.07
2018-09-09T07:56:25.006Z,19.16
2018-09-09T07:57:25.285Z,19.24
2018-09-09T07:58:25.492Z,19.30
2018-09-09T07:59:25.724Z,19.26
2018-09-09T08:00:26.000Z,19.21
2018-09-09T08:01:26.183Z,19.18
2018-09-09T08:02:26.416Z,19.27
2018-09-09T08:03:26.643Z,19.39
2018-09-09T08:04:26.875Z,19.48
2018-09-09T08:05:27.107Z,19.52
2018-09-09T08:06:27.338Z,19.55
2018-09-09T08:07:27.575Z,19.51
2018-09-09T08:08:27.808Z,19.51
2018-09-09T08:09:28.037Z,19.66
2018-09-09T08:10:28.267Z,19.70
2018-09-09T08:11:28.496Z,19.59
2018-09-09T08:12:28.727Z,19.62
2018-09-09T08:13:28.985Z,19.64
2018-09-09T08:14:29.181Z,19.70
2018-09-09T08:15:29.407Z,19.58
2018-09-09T08:16:29.627Z,19.67
2018-09-09T08:17:29.858Z,19.64
2018-09-09T08:18:30.154Z,19.82
2018-09-09T08:19:30.319Z,19.82
2018-09-09T08:20:30.552Z,20.06
2018-09-09T08:21:30.787Z,19.95
2018-09-09T08:22:31.024Z,19.95
2018-09-09T08:23:31.294Z,19.92
2018-09-09T08:24:31.491Z,19.81
2018-09-09T08:25:31.720Z,19.86
2018-09-09T08:26:31.950Z,20.03
2018-09-09T08:27:32.217Z,20.07
2018-09-09T08:28:32.452Z,20.28
2018-09-09T08:29:32.693Z,20.34
2018-09-09T08:30:32.929Z,20.55
2018-09-09T08:31:33.159Z,20.65
2018-09-09T08:32:33.396Z,20.80
2018-09-09T08:33:33.627Z,20.92
2018-09-09T08:34:33.859Z,21.02
2018-09-09T08:35:34.090Z,21.24
2018-09-09T08:36:34.321Z,21.30
2018-09-09T08:37:34.557Z,21.27
2018-09-09T08:38:34.787Z,21.45
2018-09-09T08:39:35.018Z,21.48
2018-09-09T08:40:35.250Z,21.51
2018-09-09T08:41:35.481Z,21.58
2018-09-09T08:42:35.712Z,21.57
2018-09-09T08:43:35.945Z,21.67
2018-09-09T08:44:36.177Z,21.67
2018-09-09T08:45:36.485Z,21.69
2018-09-09T08:46:36.639Z,21.77
2018-09-09T08:47:36.873Z,21.79
2018-09-09T08:48:37.103Z,21.91
2018-09-09T08:49:37.351Z,22.07
2018-09-09T08:50:37.586Z,22.04
2018-09-09T08:51:37.821Z,22.04
2018-09-09T08:52:38.060Z,22.15
2018-09-09T08:53:38.307Z,22.15
2018-09-09T08:54:38.556Z,22.23
2018-09-09T08:55:38.802Z,22.22
2018-09-09T08:56:39.047Z,22.35
2018-09-09T08:57:39.306Z,22.25
2018-09-09T08:58:39.512Z,22.35
2018-09-09T08:59:39.750Z,22.45
2018-09-09T09:00:39.984Z,22.39
2018-09-09T09:01:40.217Z,22.38
2018-09-09T09:02:40.449Z,22.45
2018-09-09T09:03:40.681Z,22.41
2018-09-09T09:04:40.914Z,22.36
2018-09-09T09:05:41.155Z,22.45
2018-09-09T09:06:41.385Z,22.44
2018-09-09T09:07:41.640Z,22.44
2018-09-09T09:08:41.857Z,22.48
2018-09-09T09:09:42.099Z,22.63
2018-09-09T09:10:42.332Z,22.60
2018-09-09T09:11:42.564Z,22.57
2018-09-09T09:12:42.798Z,22.62
2018-09-09T09:13:43.033Z,22.62
2018-09-09T09:14:43.340Z,22.55
2018-09-09T09:15:43.511Z,22.69
2018-09-09T09:16:43.742Z,22.65
2018-09-09T09:17:43.971Z,22.80
2018-09-09T09:18:44.283Z,22.80
2018-09-09T09:19:44.446Z,22.93
2018-09-09T09:20:44.886Z,22.94
2018-09-09T09:21:45.011Z,22.90
2018-09-09T09:22:45.139Z,23.09
2018-09-09T09:23:45.424Z,23.09
2018-09-09T09:24:45.635Z,23.08
2018-09-09T09:25:45.883Z,22.99
2018-09-09T09:26:46.130Z,23.06
2018-09-09T09:27:46.360Z,23.18
2018-09-09T09:28:46.624Z,23.28
2018-09-09T09:29:46.864Z,23.31
2018-09-09T09:30:47.129Z,23.36
2018-09-09T09:31:47.329Z,23.28
2018-09-09T09:32:47.570Z,23.37
2018-09-09T09:33:47.815Z,23.44
2018-09-09T09:34:48.050Z,23.48
2018-09-09T09:35:48.281Z,23.50
2018-09-09T09:36:48.513Z,23.44
2018-09-09T09:37:48.747Z,23.46
2018-09-09T09:38:48.982Z,23.47
2018-09-09T09:39:49.216Z,23.39
2018-09-09T09:40:49.451Z,23.43
2018-09-09T09:41:49.688Z,23.43
2018-09-09T09:42:49.921Z,23.34
2018-09-09T09:43:50.152Z,23.47
2018-09-09T09:44:50.393Z,23.51
2018-09-09T09:45:50.650Z,23.71
2018-09-09T09:46:50.910Z,23.78
2018-09-09T09:47:51.144Z,23.80
2018-09-09T09:48:51.377Z,23.81
2018-09-09T09:49:51.611Z,23.95
2018-09-09T09:50:51.847Z,23.99
2018-09-09T09:51:52.091Z,24.10
2018-09-09T09:52:52.335Z,24.05
2018-09-09T09:53:52.571Z,24.20
2018-09-09T09:54:52.811Z,24.16
2018-09-09T09:55:53.045Z,24.18
2018-09-09T09:56:53.277Z,24.13
2018-09-09T09:57:53.507Z,24.18
2018-09-09T09:58:53.776Z,24.21
2018-09-09T09:59:54.010Z,24.28
2018-09-09T10:00:54.243Z,24.30
2018-09-09T10:01:54.477Z,24.29
2018-09-09T10:02:54.726Z,24.30
2018-09-09T10:03:54.966Z,24.32
2018-09-09T10:04:55.209Z,24.39
2018-09-09T10:05:55.444Z,24.38
2018-09-09T10:06:55.682Z,24.58
2018-09-09T10:07:55.913Z,24.55
2018-09-09T10:08:56.149Z,24.60
2018-09-09T10:09:56.387Z,24.53
2018-09-09T10:10:56.621Z,24.57
2018-09-09T10:11:56.856Z,24.65
2018-09-09T10:12:57.092Z,24.48
2018-09-09T10:13:57.324Z,24.65
2018-09-09T10:14:57.598Z,24.85
2018-09-09T10:15:57.793Z,24.91
2018-09-09T10:16:58.036Z,25.10
2018-09-09T10:17:58.271Z,25.01
2018-09-09T10:18:58.526Z,25.16
2018-09-09T10:19:58.760Z,25.07
2018-09-09T10:20:58.996Z,24.93
2018-09-09T10:21:59.227Z,24.93
2018-09-09T10:22:59.480Z,24.92
2018-09-09T10:23:59.717Z,24.99
2018-09-09T10:24:59.957Z,25.13
2018-09-09T10:26:00.195Z,25.14
2018-09-09T10:27:00.430Z,25.03
2018-09-09T10:28:00.665Z,25.13
2018-09-09T10:29:00.898Z,25.17
2018-09-09T10:30:01.149Z,25.29
2018-09-09T10:31:01.361Z,25.29
2018-09-09T10:32:01.604Z,25.46
2018-09-09T10:33:01.839Z,25.48
2018-09-09T10:34:02.076Z,25.47
2018-09-09T10:35:02.313Z,25.48
2018-09-09T10:36:02.546Z,25.55
2018-09-09T10:37:02.791Z,25.68
2018-09-09T10:38:03.040Z,25.62
2018-09-09T10:39:03.293Z,25.65
2018-09-09T10:40:03.527Z,25.70
2018-09-09T10:41:03.761Z,25.80
2018-09-09T10:42:03.991Z,25.88
2018-09-09T10:43:04.229Z,25.91
2018-09-09T10:44:04.468Z,26.02
2018-09-09T10:45:04.701Z,26.06
2018-09-09T10:46:04.958Z,26.09
2018-09-09T10:47:05.208Z,26.25
2018-09-09T10:48:05.410Z,25.75
2018-09-09T10:49:05.647Z,25.65
2018-09-09T10:50:05.884Z,25.58
2018-09-09T10:51:06.119Z,25.38
2018-09-09T10:52:06.362Z,25.55
2018-09-09T10:53:06.609Z,25.50
2018-09-09T10:54:06.834Z,25.51
2018-09-09T10:55:07.093Z,25.63
2018-09-09T10:56:07.354Z,25.75
2018-09-09T10:57:07.596Z,25.68
2018-09-09T10:58:07.832Z,25.77
2018-09-09T10:59:08.069Z,25.63
2018-09-09T11:00:08.303Z,25.60
2018-09-09T11:01:08.538Z,25.68
2018-09-09T11:02:08.770Z,25.62
2018-09-09T11:03:09.004Z,25.75
2018-09-09T11:04:09.261Z,25.84
2018-09-09T11:05:09.561Z,25.98
2018-09-09T11:06:09.674Z,26.05
2018-09-09T11:07:09.953Z,26.21
2018-09-09T11:08:10.191Z,26.31
2018-09-09T11:09:10.427Z,26.31
2018-09-09T11:10:10.663Z,26.25
2018-09-09T11:11:10.898Z,26.28
2018-09-09T11:12:11.138Z,26.26
2018-09-09T11:13:11.378Z,26.33
2018-09-09T11:14:11.609Z,26.29
2018-09-09T11:15:11.848Z,26.38
2018-09-09T11:16:12.086Z,26.45
2018-09-09T11:17:12.335Z,26.41
2018-09-09T11:18:12.576Z,26.34
2018-09-09T11:19:12.803Z,26.40
2018-09-09T11:20:13.042Z,26.45
2018-09-09T11:21:13.288Z,26.48
2018-09-09T11:22:13.517Z,26.56
2018-09-09T11:23:13.755Z,26.28
2018-09-09T11:24:14.079Z,26.19
2018-09-09T11:25:14.232Z,26.10
2018-09-09T11:26:14.468Z,26.22
2018-09-09T11:27:14.705Z,26.26
2018-09-09T11:28:14.939Z,26.25
2018-09-09T11:29:15.182Z,26.23
2018-09-09T11:30:15.418Z,26.21
2018-09-09T11:31:15.661Z,26.21
2018-09-09T11:32:15.890Z,26.34
2018-09-09T11:33:16.130Z,26.44
2018-09-09T11:34:16.374Z,26.45
2018-09-09T11:35:17.414Z,26.48
2018-09-09T11:36:16.958Z,26.37
2018-09-09T11:37:17.154Z,26.40
2018-09-09T11:38:17.921Z,26.38
2018-09-09T11:39:17.657Z,26.51
2018-09-09T11:40:17.902Z,26.53
2018-09-09T11:41:18.136Z,26.51
2018-09-09T11:42:18.372Z,26.22
2018-09-09T11:43:18.611Z,26.03
2018-09-09T11:44:18.845Z,26.15
2018-09-09T11:45:19.089Z,26.18
2018-09-09T11:46:19.321Z,26.21
2018-09-09T11:47:19.575Z,26.33
2018-09-09T11:48:19.873Z,26.26
2018-09-09T11:49:20.015Z,26.33
2018-09-09T11:50:20.280Z,26.48
2018-09-09T11:51:23.432Z,26.48
2018-09-09T11:52:20.787Z,26.52
2018-09-09T11:53:21.126Z,26.56
2018-09-09T11:54:21.238Z,26.62
2018-09-09T11:55:21.551Z,26.66
2018-09-09T11:56:21.712Z,26.66
2018-09-09T11:57:21.972Z,26.62
2018-09-09T11:58:22.230Z,26.77
2018-09-09T11:59:22.562Z,26.84
2018-09-09T12:00:22.686Z,27.03
2018-09-09T12:01:22.929Z,27.02
2018-09-09T12:02:23.246Z,26.89
2018-09-09T12:03:23.386Z,26.84
2018-09-09T12:04:23.626Z,26.89
2018-09-09T12:05:23.879Z,26.84
2018-09-09T12:06:24.119Z,26.75
2018-09-09T12:07:24.391Z,26.90
2018-09-09T12:08:24.610Z,26.88
2018-09-09T12:09:25.440Z,26.71
2018-09-09T12:10:25.051Z,26.73
2018-09-09T12:11:25.283Z,26.84
2018-09-09T12:12:25.519Z,26.93
2018-09-09T12:13:25.767Z,26.99
2018-09-09T12:14:25.999Z,27.02
2018-09-09T12:15:26.235Z,27.02
2018-09-09T12:16:26.472Z,26.97
2018-09-09T12:17:26.707Z,26.99
2018-09-09T12:18:26.942Z,26.73
2018-09-09T12:19:27.180Z,26.80
2018-09-09T12:20:27.416Z,26.78
2018-09-09T12:21:27.659Z,26.88
2018-09-09T12:22:27.903Z,26.85
2018-09-09T12:23:28.134Z,26.73
2018-09-09T12:24:28.369Z,26.70
2018-09-09T12:25:31.435Z,26.73
2018-09-09T12:26:28.792Z,26.74
2018-09-09T12:27:29.030Z,26.88
2018-09-09T12:28:29.274Z,26.90
2018-09-09T12:29:29.518Z,26.96
2018-09-09T12:30:32.432Z,26.85
2018-09-09T12:31:30.039Z,26.85
2018-09-09T12:32:30.976Z,26.93
2018-09-09T12:33:30.530Z,27.03
2018-09-09T12:34:30.777Z,27.11
2018-09-09T12:35:31.011Z,27.20
2018-09-09T12:36:31.246Z,27.27
2018-09-09T12:37:31.515Z,27.37
2018-09-09T12:38:32.430Z,27.51
2018-09-09T12:39:32.040Z,27.36
2018-09-09T12:40:32.932Z,27.35
2018-09-09T12:41:32.541Z,27.20
2018-09-09T12:42:32.776Z,27.20
2018-09-09T12:43:33.950Z,27.21
2018-09-09T12:44:33.925Z,27.21
2018-09-09T12:45:33.412Z,27.17
2018-09-09T12:46:33.659Z,27.08
2018-09-09T12:47:33.891Z,27.17
2018-09-09T12:48:34.127Z,27.22
2018-09-09T12:49:34.385Z,27.21
2018-09-09T12:50:34.624Z,27.32
2018-09-09T12:51:34.856Z,27.52
2018-09-09T12:52:35.094Z,27.47
2018-09-09T12:53:35.929Z,27.55
2018-09-09T12:54:35.538Z,27.65
2018-09-09T12:55:35.804Z,27.55